Nissiros, Greece
Current Conditions -  °F | °C
As of 12:50 AM on Monday 24 Nov 2014 (Local Time) from LGKO Reporting Station
Scattered Clouds Scattered Clouds  
Wind Chill: 57°   Ceiling: Unl
Heat Index: 57°   Visibility: 6mi
Dew Point: 45°   Wind: 14mph
Humidity: 63%   Direction: 350°N
Pressure: 30.03"   Gusts: NA
Location:  36.58°N, 27.17°E
Report Text: LGKO 232150Z 35012KT 9999 SCT018 14/07 Q1017
Loading
Personal Weather Stations






























Interactive Weather Map New forecast layout! Learn more

10-Day Weather Forecast

Advertisements
Track Severe Weather on mobile